sensor_id;sensor_type;location;lat;lon;timestamp;pressure;altitude;pressure_sealevel;temperature;humidity
66762;BME280;53672;48.176;16.338;2024-01-16T00:04:12;98130.47;;;0.37;62.51
66762;BME280;53672;48.176;16.338;2024-01-16T00:09:14;98138.19;;;0.32;62.92
66762;BME280;53672;48.176;16.338;2024-01-16T00:14:15;98144.50;;;0.23;62.69
66762;BME280;53672;48.176;16.338;2024-01-16T00:19:19;98157.44;;;0.20;63.54
66762;BME280;53672;48.176;16.338;2024-01-16T00:24:20;98154.50;;;0.13;63.41
66762;BME280;53672;48.176;16.338;2024-01-16T00:29:22;98151.59;;;0.07;63.73
66762;BME280;53672;48.176;16.338;2024-01-16T00:34:25;98157.28;;;0.04;63.56
66762;BME280;53672;48.176;16.338;2024-01-16T00:39:27;98146.50;;;0.04;63.17
66762;BME280;53672;48.176;16.338;2024-01-16T00:44:28;98134.94;;;-0.06;63.04
66762;BME280;53672;48.176;16.338;2024-01-16T00:49:31;98148.09;;;-0.03;62.21
66762;BME280;53672;48.176;16.338;2024-01-16T00:54:33;98147.19;;;0.06;62.38
66762;BME280;53672;48.176;16.338;2024-01-16T00:59:35;98163.94;;;-0.08;62.92
66762;BME280;53672;48.176;16.338;2024-01-16T01:04:38;98179.56;;;0.06;62.34
66762;BME280;53672;48.176;16.338;2024-01-16T01:09:41;98178.56;;;0.07;62.42
66762;BME280;53672;48.176;16.338;2024-01-16T01:14:43;98179.56;;;0.06;61.25
66762;BME280;53672;48.176;16.338;2024-01-16T01:19:46;98185.34;;;0.11;61.22
66762;BME280;53672;48.176;16.338;2024-01-16T01:24:47;98190.44;;;0.14;60.85
66762;BME280;53672;48.176;16.338;2024-01-16T01:29:49;98202.53;;;0.10;60.92
66762;BME280;53672;48.176;16.338;2024-01-16T01:34:52;98210.25;;;0.05;60.59
66762;BME280;53672;48.176;16.338;2024-01-16T01:39:54;98220.47;;;0.01;60.36
66762;BME280;53672;48.176;16.338;2024-01-16T01:44:55;98229.13;;;0.05;60.52
66762;BME280;53672;48.176;16.338;2024-01-16T01:49:58;98229.56;;;0.00;60.22
66762;BME280;53672;48.176;16.338;2024-01-16T01:55:01;98249.59;;;-0.02;60.51
66762;BME280;53672;48.176;16.338;2024-01-16T02:00:04;98254.84;;;-0.01;59.78
66762;BME280;53672;48.176;16.338;2024-01-16T02:05:09;98257.97;;;-0.05;59.67
66762;BME280;53672;48.176;16.338;2024-01-16T02:10:10;98246.22;;;-0.04;59.43
66762;BME280;53672;48.176;16.338;2024-01-16T02:15:12;98286.66;;;-0.04;58.73
66762;BME280;53672;48.176;16.338;2024-01-16T02:20:16;98298.88;;;-0.10;59.41
66762;BME280;53672;48.176;16.338;2024-01-16T02:25:19;98313.22;;;-0.09;59.09
66762;BME280;53672;48.176;16.338;2024-01-16T02:30:20;98317.78;;;-0.19;59.64
66762;BME280;53672;48.176;16.338;2024-01-16T02:35:22;98331.44;;;-0.21;59.81
66762;BME280;53672;48.176;16.338;2024-01-16T02:40:26;98316.56;;;-0.25;59.92
66762;BME280;53672;48.176;16.338;2024-01-16T02:45:27;98329.47;;;-0.29;59.46
66762;BME280;53672;48.176;16.338;2024-01-16T02:50:29;98338.16;;;-0.35;60.17
66762;BME280;53672;48.176;16.338;2024-01-16T02:55:32;98355.31;;;-0.36;60.42
66762;BME280;53672;48.176;16.338;2024-01-16T03:00:33;98363.72;;;-0.39;60.18
66762;BME280;53672;48.176;16.338;2024-01-16T03:05:35;98363.72;;;-0.39;59.96
66762;BME280;53672;48.176;16.338;2024-01-16T03:10:38;98378.59;;;-0.44;60.09
66762;BME280;53672;48.176;16.338;2024-01-16T03:15:40;98361.03;;;-0.48;59.69
66762;BME280;53672;48.176;16.338;2024-01-16T03:20:42;98367.66;;;-0.43;59.59
66762;BME280;53672;48.176;16.338;2024-01-16T03:25:46;98350.78;;;-0.45;59.64
66762;BME280;53672;48.176;16.338;2024-01-16T03:30:47;98387.28;;;-0.41;59.97
66762;BME280;53672;48.176;16.338;2024-01-16T03:35:49;98384.56;;;-0.41;59.81
66762;BME280;53672;48.176;16.338;2024-01-16T03:40:52;98399.63;;;-0.48;60.12
66762;BME280;53672;48.176;16.338;2024-01-16T03:45:53;98389.97;;;-0.41;59.67
66762;BME280;53672;48.176;16.338;2024-01-16T03:50:57;98393.91;;;-0.45;59.70
66762;BME280;53672;48.176;16.338;2024-01-16T03:56:00;98401.63;;;-0.50;60.13
66762;BME280;53672;48.176;16.338;2024-01-16T04:01:02;98428.25;;;-0.47;59.58
66762;BME280;53672;48.176;16.338;2024-01-16T04:06:14;98418.59;;;-0.40;59.11
66762;BME280;53672;48.176;16.338;2024-01-16T04:11:17;98413.22;;;-0.40;58.63
66762;BME280;53672;48.176;16.338;2024-01-16T04:16:18;98414.78;;;-0.47;58.57
66762;BME280;53672;48.176;16.338;2024-01-16T04:21:20;98425.56;;;-0.37;58.92
66762;BME280;53672;48.176;16.338;2024-01-16T04:26:23;98434.66;;;-0.48;58.56
66762;BME280;53672;48.176;16.338;2024-01-16T04:31:25;98427.28;;;-0.46;57.73
66762;BME280;53672;48.176;16.338;2024-01-16T04:36:27;98416.50;;;-0.46;57.95
66762;BME280;53672;48.176;16.338;2024-01-16T04:41:30;98425.13;;;-0.42;57.54
66762;BME280;53672;48.176;16.338;2024-01-16T04:46:31;98410.34;;;-0.38;57.12
66762;BME280;53672;48.176;16.338;2024-01-16T04:51:33;98450.94;;;-0.40;56.53
66762;BME280;53672;48.176;16.338;2024-01-16T04:56:36;98414.94;;;-0.39;56.09
66762;BME280;53672;48.176;16.338;2024-01-16T05:01:37;98414.94;;;-0.39;56.67
66762;BME280;53672;48.176;16.338;2024-01-16T05:06:39;98432.78;;;-0.38;56.31
66762;BME280;53672;48.176;16.338;2024-01-16T05:11:42;98428.69;;;-0.42;56.52
66762;BME280;53672;48.176;16.338;2024-01-16T05:16:44;98437.19;;;-0.37;55.79
66762;BME280;53672;48.176;16.338;2024-01-16T05:21:46;98443.72;;;-0.39;55.67
66762;BME280;53672;48.176;16.338;2024-01-16T05:26:48;98455.63;;;-0.42;55.23
66762;BME280;53672;48.176;16.338;2024-01-16T05:31:50;98457.19;;;-0.30;54.61
66762;BME280;53672;48.176;16.338;2024-01-16T05:36:52;98467.38;;;-0.23;54.01
66762;BME280;53672;48.176;16.338;2024-01-16T05:41:55;98469.91;;;-0.22;53.75
66762;BME280;53672;48.176;16.338;2024-01-16T05:46:56;98477.88;;;-0.20;53.86
66762;BME280;53672;48.176;16.338;2024-01-16T05:51:58;98482.97;;;-0.17;53.57
66762;BME280;53672;48.176;16.338;2024-01-16T05:57:01;98494.34;;;-0.23;53.63
66762;BME280;53672;48.176;16.338;2024-01-16T06:02:03;98502.28;;;-0.22;52.67
66762;BME280;53672;48.176;16.338;2024-01-16T06:07:05;98507.22;;;-0.08;52.02
66762;BME280;53672;48.176;16.338;2024-01-16T06:12:09;98513.06;;;-0.12;52.21
66762;BME280;53672;48.176;16.338;2024-01-16T06:17:12;98512.19;;;-0.13;52.61
66762;BME280;53672;48.176;16.338;2024-01-16T06:22:14;98502.84;;;-0.18;52.39
66762;BME280;53672;48.176;16.338;2024-01-16T06:27:17;98517.75;;;-0.14;52.44
66762;BME280;53672;48.176;16.338;2024-01-16T06:32:20;98517.03;;;-0.07;52.23
66762;BME280;53672;48.176;16.338;2024-01-16T06:37:21;98535.50;;;-0.12;52.02
66762;BME280;53672;48.176;16.338;2024-01-16T06:42:24;98546.69;;;-0.16;52.32
66762;BME280;53672;48.176;16.338;2024-01-16T06:47:26;98555.66;;;-0.16;52.39
66762;BME280;53672;48.176;16.338;2024-01-16T06:52:27;98558.19;;;-0.05;51.80
66762;BME280;53672;48.176;16.338;2024-01-16T06:57:30;98556.78;;;-0.09;51.57
66762;BME280;53672;48.176;16.338;2024-01-16T07:02:32;98563.44;;;-0.03;51.02
66762;BME280;53672;48.176;16.338;2024-01-16T07:07:33;98576.22;;;0.14;51.38
66762;BME280;53672;48.176;16.338;2024-01-16T07:12:36;98569.34;;;0.29;50.07
66762;BME280;53672;48.176;16.338;2024-01-16T07:17:38;98586.81;;;0.44;49.63
66762;BME280;53672;48.176;16.338;2024-01-16T07:22:40;98588.47;;;0.64;49.03
66762;BME280;53672;48.176;16.338;2024-01-16T07:27:43;98590.50;;;0.89;48.84
66762;BME280;53672;48.176;16.338;2024-01-16T07:32:47;98595.72;;;1.00;48.30
66762;BME280;53672;48.176;16.338;2024-01-16T07:37:48;98598.44;;;1.28;47.26
66762;BME280;53672;48.176;16.338;2024-01-16T07:42:51;98604.31;;;1.41;46.30
66762;BME280;53672;48.176;16.338;2024-01-16T07:47:53;98598.81;;;1.60;45.97
66762;BME280;53672;48.176;16.338;2024-01-16T07:52:54;98632.19;;;1.68;46.17
66762;BME280;53672;48.176;16.338;2024-01-16T07:57:57;98626.78;;;1.96;45.30
66762;BME280;53672;48.176;16.338;2024-01-16T08:02:59;98642.38;;;2.02;44.83
66762;BME280;53672;48.176;16.338;2024-01-16T08:08:00;98632.47;;;2.28;44.08
66762;BME280;53672;48.176;16.338;2024-01-16T08:13:03;98633.88;;;2.57;43.32
66762;BME280;53672;48.176;16.338;2024-01-16T08:18:05;98649.59;;;2.97;41.64
66762;BME280;53672;48.176;16.338;2024-01-16T08:23:07;98638.75;;;3.23;41.09
66762;BME280;53672;48.176;16.338;2024-01-16T08:28:10;98649.94;;;4.28;39.21
66762;BME280;53672;48.176;16.338;2024-01-16T08:33:12;98648.69;;;6.43;34.45
66762;BME280;53672;48.176;16.338;2024-01-16T08:38:13;98650.75;;;8.11;30.51
66762;BME280;53672;48.176;16.338;2024-01-16T08:43:16;98651.66;;;9.80;27.13
66762;BME280;53672;48.176;16.338;2024-01-16T08:48:18;98657.75;;;10.76;25.91
66762;BME280;53672;48.176;16.338;2024-01-16T08:53:19;98663.84;;;11.96;24.27
66762;BME280;53672;48.176;16.338;2024-01-16T08:58:24;98684.75;;;13.05;22.77
66762;BME280;53672;48.176;16.338;2024-01-16T09:03:27;98673.13;;;14.02;20.56
66762;BME280;53672;48.176;16.338;2024-01-16T09:08:28;98677.75;;;14.63;20.04
66762;BME280;53672;48.176;16.338;2024-01-16T09:13:31;98678.75;;;13.71;20.87
66762;BME280;53672;48.176;16.338;2024-01-16T09:18:34;98678.22;;;13.80;20.89
66762;BME280;53672;48.176;16.338;2024-01-16T09:23:35;98695.28;;;13.71;20.41
66762;BME280;53672;48.176;16.338;2024-01-16T09:28:38;98689.56;;;15.41;18.69
66762;BME280;53672;48.176;16.338;2024-01-16T09:33:40;98691.78;;;16.54;18.20
66762;BME280;53672;48.176;16.338;2024-01-16T09:38:43;98689.56;;;15.41;18.95
66762;BME280;53672;48.176;16.338;2024-01-16T09:43:47;98691.53;;;14.81;20.11
66762;BME280;53672;48.176;16.338;2024-01-16T09:48:50;98695.44;;;15.33;19.72
66762;BME280;53672;48.176;16.338;2024-01-16T09:53:55;98694.78;;;16.93;18.08
66762;BME280;53672;48.176;16.338;2024-01-16T09:59:03;98700.03;;;17.34;17.44
66762;BME280;53672;48.176;16.338;2024-01-16T10:04:06;98694.06;;;15.53;18.60
66762;BME280;53672;48.176;16.338;2024-01-16T10:09:08;98709.59;;;16.47;18.13
66762;BME280;53672;48.176;16.338;2024-01-16T10:14:14;98707.56;;;16.42;18.07
66762;BME280;53672;48.176;16.338;2024-01-16T10:19:16;98708.38;;;17.06;17.68
66762;BME280;53672;48.176;16.338;2024-01-16T10:24:17;98726.84;;;12.81;22.45
66762;BME280;53672;48.176;16.338;2024-01-16T10:29:20;98716.84;;;13.56;21.91
66762;BME280;53672;48.176;16.338;2024-01-16T10:34:22;98722.94;;;15.27;20.31
66762;BME280;53672;48.176;16.338;2024-01-16T10:39:24;98719.38;;;18.40;16.60
66762;BME280;53672;48.176;16.338;2024-01-16T10:44:27;98720.47;;;17.56;17.22
66762;BME280;53672;48.176;16.338;2024-01-16T10:49:29;98714.69;;;15.92;19.18
66762;BME280;53672;48.176;16.338;2024-01-16T10:54:31;98718.56;;;17.90;18.06
66762;BME280;53672;48.176;16.338;2024-01-16T10:59:40;98706.13;;;20.29;14.96
66762;BME280;53672;48.176;16.338;2024-01-16T11:04:44;98710.28;;;20.68;14.41
66762;BME280;53672;48.176;16.338;2024-01-16T11:09:46;98713.50;;;17.87;18.58
66762;BME280;53672;48.176;16.338;2024-01-16T11:14:51;98711.25;;;17.11;17.20
66762;BME280;53672;48.176;16.338;2024-01-16T11:19:54;98713.41;;;18.15;16.83
66762;BME280;53672;48.176;16.338;2024-01-16T11:25:07;98706.47;;;16.67;17.95
66762;BME280;53672;48.176;16.338;2024-01-16T11:30:12;98721.94;;;15.10;20.16
66762;BME280;53672;48.176;16.338;2024-01-16T11:35:31;98722.34;;;15.67;19.65
66762;BME280;53672;48.176;16.338;2024-01-16T11:40:33;98717.50;;;17.46;17.57
66762;BME280;53672;48.176;16.338;2024-01-16T11:45:49;98703.19;;;18.37;16.98
66762;BME280;53672;48.176;16.338;2024-01-16T11:50:54;98694.03;;;19.82;14.01
66762;BME280;53672;48.176;16.338;2024-01-16T11:56:11;98678.69;;;15.69;18.35
66762;BME280;53672;48.176;16.338;2024-01-16T12:01:17;98686.28;;;16.08;17.60
66762;BME280;53672;48.176;16.338;2024-01-16T12:06:20;98680.19;;;12.93;21.25
66762;BME280;53672;48.176;16.338;2024-01-16T12:11:21;98663.59;;;12.04;22.58
66762;BME280;53672;48.176;16.338;2024-01-16T12:16:26;98666.84;;;10.90;23.93
66762;BME280;53672;48.176;16.338;2024-01-16T12:21:27;98676.28;;;10.14;25.28
66762;BME280;53672;48.176;16.338;2024-01-16T12:26:29;98681.63;;;9.26;28.24
66762;BME280;53672;48.176;16.338;2024-01-16T12:31:33;98674.41;;;8.04;28.37
66762;BME280;53672;48.176;16.338;2024-01-16T12:36:35;98672.91;;;7.43;28.45
66762;BME280;53672;48.176;16.338;2024-01-16T12:41:41;98676.31;;;7.08;28.72
66762;BME280;53672;48.176;16.338;2024-01-16T12:46:44;98661.75;;;6.56;28.96
66762;BME280;53672;48.176;16.338;2024-01-16T12:52:16;98666.38;;;6.25;29.99
66762;BME280;53672;48.176;16.338;2024-01-16T12:57:19;98671.56;;;5.73;31.03
66762;BME280;53672;48.176;16.338;2024-01-16T13:02:23;98672.22;;;5.83;29.91
66762;BME280;53672;48.176;16.338;2024-01-16T13:07:25;98663.25;;;5.66;30.24
66762;BME280;53672;48.176;16.338;2024-01-16T13:12:27;98669.63;;;5.43;31.22
66762;BME280;53672;48.176;16.338;2024-01-16T13:17:35;98670.97;;;5.47;30.80
66762;BME280;53672;48.176;16.338;2024-01-16T13:22:36;98680.19;;;5.37;31.27
66762;BME280;53672;48.176;16.338;2024-01-16T13:27:38;98680.13;;;5.54;30.45
66762;BME280;53672;48.176;16.338;2024-01-16T13:32:41;98675.72;;;5.45;30.82
66762;BME280;53672;48.176;16.338;2024-01-16T13:37:42;98672.94;;;5.69;31.37
66762;BME280;53672;48.176;16.338;2024-01-16T13:42:44;98678.78;;;5.58;31.39
66762;BME280;53672;48.176;16.338;2024-01-16T13:47:47;98662.00;;;5.77;30.99
66762;BME280;53672;48.176;16.338;2024-01-16T13:52:49;98659.69;;;5.66;31.21
66762;BME280;53672;48.176;16.338;2024-01-16T13:57:51;98667.91;;;5.50;31.61
66762;BME280;53672;48.176;16.338;2024-01-16T14:02:54;98663.19;;;5.35;32.25
66762;BME280;53672;48.176;16.338;2024-01-16T14:07:56;98669.19;;;5.23;32.31
66762;BME280;53672;48.176;16.338;2024-01-16T14:12:57;98676.84;;;4.95;32.84
66762;BME280;53672;48.176;16.338;2024-01-16T14:18:00;98680.56;;;4.78;34.53
66762;BME280;53672;48.176;16.338;2024-01-16T14:23:03;98671.88;;;4.66;34.79
66762;BME280;53672;48.176;16.338;2024-01-16T14:28:05;98666.63;;;4.81;35.41
66762;BME280;53672;48.176;16.338;2024-01-16T14:33:08;98661.88;;;4.67;34.36
66762;BME280;53672;48.176;16.338;2024-01-16T14:38:09;98651.84;;;4.51;34.67
66762;BME280;53672;48.176;16.338;2024-01-16T14:43:11;98653.66;;;4.11;35.35
66762;BME280;53672;48.176;16.338;2024-01-16T14:48:15;98647.81;;;3.81;35.83
66762;BME280;53672;48.176;16.338;2024-01-16T14:53:17;98648.59;;;3.66;36.59
66762;BME280;53672;48.176;16.338;2024-01-16T14:58:19;98652.78;;;3.52;36.82
66762;BME280;53672;48.176;16.338;2024-01-16T15:03:24;98648.13;;;3.37;38.03
66762;BME280;53672;48.176;16.338;2024-01-16T15:08:26;98654.41;;;3.37;39.21
66762;BME280;53672;48.176;16.338;2024-01-16T15:13:28;98660.34;;;3.33;38.50
66762;BME280;53672;48.176;16.338;2024-01-16T15:18:31;98654.59;;;3.10;39.21
66762;BME280;53672;48.176;16.338;2024-01-16T15:23:33;98665.22;;;3.03;40.01
66762;BME280;53672;48.176;16.338;2024-01-16T15:28:35;98679.22;;;2.91;40.17
66762;BME280;53672;48.176;16.338;2024-01-16T15:33:38;98686.09;;;2.85;40.07
66762;BME280;53672;48.176;16.338;2024-01-16T15:38:39;98688.59;;;2.79;40.47
66762;BME280;53672;48.176;16.338;2024-01-16T15:43:41;98696.81;;;2.69;40.67
66762;BME280;53672;48.176;16.338;2024-01-16T15:48:44;98688.06;;;2.57;41.43
66762;BME280;53672;48.176;16.338;2024-01-16T15:53:45;98695.63;;;2.46;41.66
66762;BME280;53672;48.176;16.338;2024-01-16T15:58:47;98701.31;;;2.43;42.91
66762;BME280;53672;48.176;16.338;2024-01-16T16:03:51;98697.53;;;2.36;42.17
66762;BME280;53672;48.176;16.338;2024-01-16T16:08:52;98704.03;;;2.25;42.53
66762;BME280;53672;48.176;16.338;2024-01-16T16:13:54;98694.59;;;2.29;42.71
66762;BME280;53672;48.176;16.338;2024-01-16T16:18:57;98703.72;;;2.28;42.97
66762;BME280;53672;48.176;16.338;2024-01-16T16:23:59;98706.88;;;2.24;42.96
66762;BME280;53672;48.176;16.338;2024-01-16T16:29:01;98720.28;;;2.25;42.31
66762;BME280;53672;48.176;16.338;2024-01-16T16:34:07;98707.34;;;2.19;42.91
66762;BME280;53672;48.176;16.338;2024-01-16T16:39:10;98714.47;;;2.20;43.17
66762;BME280;53672;48.176;16.338;2024-01-16T16:44:13;98718.91;;;2.12;42.64
66762;BME280;53672;48.176;16.338;2024-01-16T16:49:16;98718.38;;;2.08;42.81
66762;BME280;53672;48.176;16.338;2024-01-16T16:54:17;98711.25;;;2.07;43.54
66762;BME280;53672;48.176;16.338;2024-01-16T16:59:19;98686.38;;;2.04;44.00
66762;BME280;53672;48.176;16.338;2024-01-16T17:04:22;98694.25;;;1.97;43.93
66762;BME280;53672;48.176;16.338;2024-01-16T17:09:24;98690.28;;;1.92;44.66
66762;BME280;53672;48.176;16.338;2024-01-16T17:14:26;98690.03;;;1.85;43.73
66762;BME280;53672;48.176;16.338;2024-01-16T17:19:29;98690.34;;;1.82;44.37
66762;BME280;53672;48.176;16.338;2024-01-16T17:24:30;98689.31;;;1.65;44.93
66762;BME280;53672;48.176;16.338;2024-01-16T17:29:33;98691.03;;;1.57;45.68
66762;BME280;53672;48.176;16.338;2024-01-16T17:34:37;98683.84;;;1.48;45.38
66762;BME280;53672;48.176;16.338;2024-01-16T17:39:38;98670.66;;;1.35;47.05
66762;BME280;53672;48.176;16.338;2024-01-16T17:44:46;98680.97;;;1.22;46.45
66762;BME280;53672;48.176;16.338;2024-01-16T17:49:49;98671.75;;;1.15;47.08
66762;BME280;53672;48.176;16.338;2024-01-16T17:54:50;98669.97;;;0.96;47.35
66762;BME280;53672;48.176;16.338;2024-01-16T17:59:52;98665.28;;;0.89;47.54
66762;BME280;53672;48.176;16.338;2024-01-16T18:04:55;98671.97;;;0.85;46.73
66762;BME280;53672;48.176;16.338;2024-01-16T18:09:57;98677.38;;;0.85;47.02
66762;BME280;53672;48.176;16.338;2024-01-16T18:14:59;98666.88;;;0.82;47.57
66762;BME280;53672;48.176;16.338;2024-01-16T18:20:03;98668.59;;;0.73;48.55
66762;BME280;53672;48.176;16.338;2024-01-16T18:25:08;98677.72;;;0.63;48.74
66762;BME280;53672;48.176;16.338;2024-01-16T18:30:11;98672.88;;;0.66;48.70
66762;BME280;53672;48.176;16.338;2024-01-16T18:35:16;98661.66;;;0.61;48.15
66762;BME280;53672;48.176;16.338;2024-01-16T18:40:19;98681.94;;;0.65;48.20
66762;BME280;53672;48.176;16.338;2024-01-16T18:45:22;98681.41;;;0.62;48.07
66762;BME280;53672;48.176;16.338;2024-01-16T18:50:25;98677.03;;;0.51;48.52
66762;BME280;53672;48.176;16.338;2024-01-16T18:55:26;98681.41;;;0.33;48.46
66762;BME280;53672;48.176;16.338;2024-01-16T19:00:28;98673.78;;;0.19;49.63
66762;BME280;53672;48.176;16.338;2024-01-16T19:05:31;98672.31;;;0.15;50.03
66762;BME280;53672;48.176;16.338;2024-01-16T19:10:34;98677.00;;;0.03;50.06
66762;BME280;53672;48.176;16.338;2024-01-16T19:15:36;98672.16;;;-0.12;50.32
66762;BME280;53672;48.176;16.338;2024-01-16T19:20:39;98666.91;;;-0.14;50.55
66762;BME280;53672;48.176;16.338;2024-01-16T19:25:40;98658.38;;;-0.19;51.35
66762;BME280;53672;48.176;16.338;2024-01-16T19:30:42;98664.59;;;-0.38;52.51
66762;BME280;53672;48.176;16.338;2024-01-16T19:35:46;98675.19;;;-0.55;53.40
66762;BME280;53672;48.176;16.338;2024-01-16T19:40:48;98679.56;;;-0.64;54.50
66762;BME280;53672;48.176;16.338;2024-01-16T19:45:50;98675.00;;;-0.73;55.26
66762;BME280;53672;48.176;16.338;2024-01-16T19:50:54;98676.53;;;-0.80;55.75
66762;BME280;53672;48.176;16.338;2024-01-16T19:55:55;98668.41;;;-0.89;56.97
66762;BME280;53672;48.176;16.338;2024-01-16T20:00:59;98660.03;;;-0.96;57.28
66762;BME280;53672;48.176;16.338;2024-01-16T20:06:04;98652.56;;;-1.13;58.18
66762;BME280;53672;48.176;16.338;2024-01-16T20:11:06;98641.63;;;-1.21;58.52
66762;BME280;53672;48.176;16.338;2024-01-16T20:16:08;98638.16;;;-1.33;59.47
66762;BME280;53672;48.176;16.338;2024-01-16T20:21:12;98646.63;;;-1.37;59.60
66762;BME280;53672;48.176;16.338;2024-01-16T20:26:13;98640.53;;;-1.39;60.27
66762;BME280;53672;48.176;16.338;2024-01-16T20:31:15;98627.34;;;-1.42;59.98
66762;BME280;53672;48.176;16.338;2024-01-16T20:36:18;98626.72;;;-1.46;60.50
66762;BME280;53672;48.176;16.338;2024-01-16T20:41:20;98625.69;;;-1.54;61.31
66762;BME280;53672;48.176;16.338;2024-01-16T20:46:22;98617.94;;;-1.68;61.94
66762;BME280;53672;48.176;16.338;2024-01-16T20:51:25;98606.88;;;-1.75;62.41
66762;BME280;53672;48.176;16.338;2024-01-16T20:56:29;98604.00;;;-1.83;62.90
66762;BME280;53672;48.176;16.338;2024-01-16T21:01:30;98606.16;;;-1.98;63.13
66762;BME280;53672;48.176;16.338;2024-01-16T21:06:33;98603.00;;;-2.03;63.72
66762;BME280;53672;48.176;16.338;2024-01-16T21:11:35;98596.81;;;-2.14;63.57
66762;BME280;53672;48.176;16.338;2024-01-16T21:16:36;98600.75;;;-2.18;64.21
66762;BME280;53672;48.176;16.338;2024-01-16T21:21:42;98602.13;;;-2.24;64.65
66762;BME280;53672;48.176;16.338;2024-01-16T21:26:44;98602.16;;;-2.35;65.17
66762;BME280;53672;48.176;16.338;2024-01-16T21:31:47;98602.91;;;-2.44;65.20
66762;BME280;53672;48.176;16.338;2024-01-16T21:36:51;98598.22;;;-2.52;65.93
66762;BME280;53672;48.176;16.338;2024-01-16T21:41:53;98588.44;;;-2.53;66.18
66762;BME280;53672;48.176;16.338;2024-01-16T21:46:55;98590.28;;;-2.64;66.56
66762;BME280;53672;48.176;16.338;2024-01-16T21:51:58;98590.34;;;-2.75;67.05
66762;BME280;53672;48.176;16.338;2024-01-16T21:57:01;98586.56;;;-2.84;66.91
66762;BME280;53672;48.176;16.338;2024-01-16T22:02:03;98581.69;;;-2.90;66.81
66762;BME280;53672;48.176;16.338;2024-01-16T22:07:07;98579.03;;;-3.01;68.25
66762;BME280;53672;48.176;16.338;2024-01-16T22:12:09;98581.00;;;-3.03;68.68
66762;BME280;53672;48.176;16.338;2024-01-16T22:17:10;98571.72;;;-3.10;68.89
66762;BME280;53672;48.176;16.338;2024-01-16T22:22:13;98562.34;;;-3.04;68.44
66762;BME280;53672;48.176;16.338;2024-01-16T22:27:16;98545.50;;;-3.06;68.87
66762;BME280;53672;48.176;16.338;2024-01-16T22:32:18;98540.75;;;-3.14;68.36
66762;BME280;53672;48.176;16.338;2024-01-16T22:37:23;98525.50;;;-3.25;68.83
66762;BME280;53672;48.176;16.338;2024-01-16T22:42:26;98533.47;;;-3.34;69.52
66762;BME280;53672;48.176;16.338;2024-01-16T22:47:27;98520.19;;;-3.47;69.71
66762;BME280;53672;48.176;16.338;2024-01-16T22:52:30;98520.41;;;-3.50;70.73
66762;BME280;53672;48.176;16.338;2024-01-16T22:57:32;98526.66;;;-3.49;71.75
66762;BME280;53672;48.176;16.338;2024-01-16T23:02:34;98517.75;;;-3.50;71.72
66762;BME280;53672;48.176;16.338;2024-01-16T23:07:37;98511.66;;;-3.41;71.23
66762;BME280;53672;48.176;16.338;2024-01-16T23:12:39;98502.00;;;-3.21;70.69
66762;BME280;53672;48.176;16.338;2024-01-16T23:17:40;98506.00;;;-3.16;70.29
66762;BME280;53672;48.176;16.338;2024-01-16T23:22:43;98499.50;;;-3.13;69.61
66762;BME280;53672;48.176;16.338;2024-01-16T23:27:45;98494.97;;;-2.90;69.82
66762;BME280;53672;48.176;16.338;2024-01-16T23:32:49;98479.47;;;-2.98;69.81
66762;BME280;53672;48.176;16.338;2024-01-16T23:37:52;98468.41;;;-3.04;70.51
66762;BME280;53672;48.176;16.338;2024-01-16T23:42:55;98467.41;;;-3.03;70.26
66762;BME280;53672;48.176;16.338;2024-01-16T23:47:57;98463.81;;;-3.13;71.33
66762;BME280;53672;48.176;16.338;2024-01-16T23:53:00;98457.34;;;-3.22;71.69
66762;BME280;53672;48.176;16.338;2024-01-16T23:58:02;98447.50;;;-3.33;71.78
